Time;durP1;ratioP1;P1;durP2;ratioP2;P2;SDS_P1;SDS_P2;PMS_P1;PMS_P2;Temp;Humidity;BMP_temperature;BMP_pressure;BME280_temperature;BME280_humidity;BME280_pressure;Samples;Min_cycle;Max_cycle;Signal;HPM_P1;HPM_P2
2021/09/22 00:01:26;;;;;;;0.10;0.10;;;;;;;;;;5085511;28;20206;-69
2021/09/22 00:03:53;;;;;;;0.10;0.10;;;;;;;;;;5085292;28;20240;-68
2021/09/22 00:06:20;;;;;;;0.10;0.10;;;;;;;;;;5085049;28;20274;-69
2021/09/22 00:08:46;;;;;;;0.10;0.10;;;;;;;;;;5085378;28;21017;-68
2021/09/22 00:11:13;;;;;;;0.10;0.10;;;;;;;;;;5085243;28;20273;-68
2021/09/22 00:13:39;;;;;;;0.10;0.10;;;;;;;;;;5084898;28;20342;-69
2021/09/22 00:16:05;;;;;;;0.10;0.10;;;;;;;;;;5084800;28;20228;-68
2021/09/22 00:18:32;;;;;;;0.10;0.10;;;;;;;;;;5084846;28;20217;-68
2021/09/22 00:20:58;;;;;;;0.10;0.10;;;;;;;;;;5084347;28;20235;-69
2021/09/22 00:23:26;;;;;;;0.10;0.10;;;;;;;;;;5085065;28;20492;-69
2021/09/22 00:25:52;;;;;;;0.10;0.10;;;;;;;;;;5084511;28;20242;-69
2021/09/22 00:28:18;;;;;;;0.10;0.10;;;;;;;;;;5084995;28;20253;-69
2021/09/22 00:30:45;;;;;;;0.10;0.10;;;;;;;;;;5083583;28;20203;-69
2021/09/22 00:33:11;;;;;;;0.10;0.10;;;;;;;;;;5084964;28;20201;-69
2021/09/22 00:35:37;;;;;;;0.10;0.10;;;;;;;;;;5084513;28;20262;-69
2021/09/22 00:38:04;;;;;;;0.10;0.10;;;;;;;;;;5084411;28;20243;-69
2021/09/22 00:40:32;;;;;;;0.10;0.10;;;;;;;;;;5084683;28;20520;-69
2021/09/22 00:42:58;;;;;;;0.10;0.10;;;;;;;;;;5084743;28;20205;-69
2021/09/22 00:45:24;;;;;;;0.10;0.10;;;;;;;;;;5084674;28;20205;-69
2021/09/22 00:47:50;;;;;;;0.10;0.10;;;;;;;;;;5084618;28;20271;-69
2021/09/22 00:50:17;;;;;;;0.10;0.10;;;;;;;;;;5084770;28;20237;-69
2021/09/22 00:52:44;;;;;;;0.10;0.10;;;;;;;;;;5084548;28;20226;-69
2021/09/22 00:55:12;;;;;;;0.67;0.53;;;;;;;;;;5084066;28;20227;-69
2021/09/22 00:57:42;;;;;;;0.10;0.10;;;;;;;;;;5084535;28;20205;-69
2021/09/22 01:00:09;;;;;;;0.10;0.10;;;;;;;;;;5084513;28;20203;-69
2021/09/22 01:02:35;;;;;;;0.10;0.10;;;;;;;;;;5084117;28;20212;-69
2021/09/22 01:05:01;;;;;;;0.10;0.10;;;;;;;;;;5084113;28;20264;-69
2021/09/22 01:07:27;;;;;;;0.10;0.10;;;;;;;;;;5084277;28;20203;-69
2021/09/22 01:09:54;;;;;;;0.10;0.10;;;;;;;;;;5084110;28;20199;-69
2021/09/22 01:12:20;;;;;;;0.10;0.10;;;;;;;;;;5084274;28;20207;-69
2021/09/22 01:14:48;;;;;;;0.10;0.10;;;;;;;;;;5084092;28;20224;-69
2021/09/22 01:17:18;;;;;;;0.10;0.10;;;;;;;;;;5083812;28;20224;-69
2021/09/22 01:19:44;;;;;;;0.10;0.10;;;;;;;;;;5084010;28;20205;-69
2021/09/22 01:22:17;;;;;;;0.10;0.10;;;;;;;;;;5084002;28;20212;-68
2021/09/22 01:24:43;;;;;;;0.10;0.10;;;;;;;;;;5083977;28;20271;-69
2021/09/22 01:27:10;;;;;;;0.10;0.10;;;;;;;;;;5072281;28;20312;-69
2021/09/22 01:29:36;;;;;;;0.10;0.10;;;;;;;;;;5072854;28;20233;-69
2021/09/22 01:32:02;;;;;;;0.10;0.10;;;;;;;;;;5083714;28;20449;-69
2021/09/22 01:34:29;;;;;;;0.10;0.10;;;;;;;;;;5083682;28;20203;-69
2021/09/22 01:36:55;;;;;;;0.10;0.10;;;;;;;;;;5083822;28;20356;-68
2021/09/22 01:39:22;;;;;;;0.10;0.10;;;;;;;;;;5083622;28;20209;-68
2021/09/22 01:41:51;;;;;;;0.10;0.10;;;;;;;;;;5083385;28;20210;-69
2021/09/22 01:44:17;;;;;;;0.10;0.10;;;;;;;;;;5083193;28;20205;-68
2021/09/22 01:46:43;;;;;;;0.10;0.10;;;;;;;;;;5083371;28;20201;-68
2021/09/22 01:49:10;;;;;;;0.10;0.10;;;;;;;;;;5083470;28;20199;-69
2021/09/22 01:51:36;;;;;;;0.10;0.10;;;;;;;;;;5083500;28;20529;-69
2021/09/22 01:54:02;;;;;;;0.10;0.10;;;;;;;;;;5083221;28;20215;-69
2021/09/22 01:56:30;;;;;;;0.10;0.10;;;;;;;;;;5083380;28;20473;-68
2021/09/22 01:58:56;;;;;;;0.20;0.20;;;;;;;;;;5083346;28;20352;-69
2021/09/22 02:01:22;;;;;;;0.10;0.10;;;;;;;;;;5083277;28;20208;-69
2021/09/22 02:03:48;;;;;;;0.10;0.10;;;;;;;;;;5082925;28;20203;-69
2021/09/22 02:06:15;;;;;;;0.10;0.10;;;;;;;;;;5083118;28;20228;-69
2021/09/22 02:08:43;;;;;;;0.10;0.10;;;;;;;;;;5082938;28;20213;-69
2021/09/22 02:11:10;;;;;;;0.10;0.10;;;;;;;;;;5083196;28;20248;-69
2021/09/22 02:13:37;;;;;;;0.10;0.10;;;;;;;;;;5083151;28;20265;-69
2021/09/22 02:16:04;;;;;;;0.10;0.10;;;;;;;;;;5083033;28;20282;-69
2021/09/22 02:18:30;;;;;;;0.10;0.10;;;;;;;;;;5082765;28;20214;-69
2021/09/22 02:20:56;;;;;;;0.17;0.17;;;;;;;;;;5082809;28;20249;-69
2021/09/22 02:23:22;;;;;;;0.10;0.10;;;;;;;;;;5083002;28;20204;-69
2021/09/22 02:25:49;;;;;;;0.10;0.10;;;;;;;;;;5082959;28;20203;-69
2021/09/22 02:28:15;;;;;;;0.10;0.10;;;;;;;;;;5079804;28;20211;-69
2021/09/22 02:30:43;;;;;;;0.10;0.10;;;;;;;;;;5080403;28;20389;-69
2021/09/22 02:33:09;;;;;;;0.10;0.10;;;;;;;;;;5082646;28;20573;-69
2021/09/22 02:35:35;;;;;;;0.10;0.10;;;;;;;;;;5082359;28;20203;-69
2021/09/22 02:38:01;;;;;;;0.10;0.10;;;;;;;;;;5082843;28;20211;-69
2021/09/22 02:40:28;;;;;;;0.00;0.00;;;;;;;;;;5082607;28;20241;-69
2021/09/22 02:42:54;;;;;;;0.10;0.10;;;;;;;;;;5082783;28;20207;-69
2021/09/22 02:45:20;;;;;;;0.10;0.10;;;;;;;;;;5082814;28;20209;-69
2021/09/22 02:47:48;;;;;;;0.10;0.10;;;;;;;;;;5082786;28;20208;-69
2021/09/22 02:50:17;;;;;;;0.10;0.10;;;;;;;;;;5083017;28;20510;-69
2021/09/22 02:52:43;;;;;;;0.10;0.10;;;;;;;;;;5082580;28;20291;-70
2021/09/22 02:55:09;;;;;;;0.10;0.10;;;;;;;;;;5086175;28;20500;-69
2021/09/22 02:57:36;;;;;;;0.10;0.10;;;;;;;;;;5086758;28;20227;-70
2021/09/22 03:00:03;;;;;;;0.10;0.10;;;;;;;;;;5086706;28;20550;-69
2021/09/22 03:02:29;;;;;;;0.10;0.10;;;;;;;;;;5086524;28;20270;-68
2021/09/22 03:04:56;;;;;;;0.10;0.10;;;;;;;;;;5086605;28;20269;-68
2021/09/22 03:07:23;;;;;;;0.10;0.10;;;;;;;;;;5086430;28;20206;-68
2021/09/22 03:09:49;;;;;;;0.10;0.10;;;;;;;;;;5086323;28;20254;-68
2021/09/22 03:12:15;;;;;;;0.10;0.10;;;;;;;;;;5086566;28;20203;-69
2021/09/22 03:14:41;;;;;;;0.10;0.10;;;;;;;;;;5086198;28;20202;-69
2021/09/22 03:17:08;;;;;;;0.10;0.10;;;;;;;;;;5086476;28;20561;-69
2021/09/22 03:19:34;;;;;;;0.10;0.10;;;;;;;;;;5086388;28;20476;-69
2021/09/22 03:22:01;;;;;;;0.10;0.10;;;;;;;;;;5086254;28;20218;-68
2021/09/22 03:24:30;;;;;;;0.10;0.10;;;;;;;;;;5086140;28;20210;-69
2021/09/22 03:26:56;;;;;;;0.10;0.10;;;;;;;;;;5086196;28;20335;-68
2021/09/22 03:29:22;;;;;;;0.10;0.10;;;;;;;;;;5086120;28;20249;-68
2021/09/22 03:31:48;;;;;;;0.10;0.10;;;;;;;;;;5086198;28;20204;-68
2021/09/22 03:34:14;;;;;;;0.10;0.10;;;;;;;;;;5085729;28;20200;-68
2021/09/22 03:36:41;;;;;;;0.10;0.10;;;;;;;;;;5085604;28;20285;-68
2021/09/22 03:39:08;;;;;;;0.10;0.10;;;;;;;;;;5085860;28;20495;-68
2021/09/22 03:41:35;;;;;;;0.10;0.10;;;;;;;;;;5085991;28;20211;-68
2021/09/22 03:44:01;;;;;;;0.10;0.10;;;;;;;;;;5085437;28;20222;-68
2021/09/22 03:46:27;;;;;;;0.10;0.10;;;;;;;;;;5085899;28;20203;-69
2021/09/22 03:48:53;;;;;;;0.10;0.10;;;;;;;;;;5085885;28;20204;-69
2021/09/22 03:51:20;;;;;;;0.10;0.10;;;;;;;;;;5085682;28;20245;-68
2021/09/22 03:53:46;;;;;;;0.10;0.10;;;;;;;;;;5085363;28;20217;-69
2021/09/22 03:56:13;;;;;;;0.10;0.10;;;;;;;;;;5085348;28;20531;-68
2021/09/22 03:58:40;;;;;;;0.10;0.10;;;;;;;;;;5085140;28;20214;-68
2021/09/22 04:01:06;;;;;;;0.10;0.10;;;;;;;;;;5085038;28;20203;-68
2021/09/22 04:03:32;;;;;;;0.10;0.10;;;;;;;;;;5084758;28;20206;-68
2021/09/22 04:05:58;;;;;;;0.10;0.10;;;;;;;;;;5085058;28;20226;-68
2021/09/22 04:08:24;;;;;;;0.10;0.10;;;;;;;;;;5085065;28;20506;-70
2021/09/22 04:10:51;;;;;;;0.10;0.10;;;;;;;;;;5085382;28;20203;-68
2021/09/22 04:13:18;;;;;;;0.10;0.10;;;;;;;;;;5085268;28;20248;-68
2021/09/22 04:15:44;;;;;;;0.10;0.10;;;;;;;;;;5085504;28;20217;-67
2021/09/22 04:18:10;;;;;;;0.10;0.10;;;;;;;;;;5085215;28;20542;-69
2021/09/22 04:20:37;;;;;;;0.20;0.20;;;;;;;;;;5085437;28;20260;-69
2021/09/22 04:23:03;;;;;;;0.10;0.10;;;;;;;;;;5084794;28;20219;-69
2021/09/22 04:25:29;;;;;;;0.10;0.10;;;;;;;;;;5085072;28;20203;-69
2021/09/22 04:27:56;;;;;;;0.20;0.20;;;;;;;;;;5085268;28;20223;-69
2021/09/22 04:30:23;;;;;;;0.10;0.10;;;;;;;;;;5085064;28;20211;-70
2021/09/22 04:32:49;;;;;;;0.10;0.10;;;;;;;;;;5084918;28;20206;-69
2021/09/22 04:35:16;;;;;;;0.57;0.57;;;;;;;;;;5085047;28;20207;-69
2021/09/22 04:37:42;;;;;;;0.10;0.10;;;;;;;;;;5084632;28;20222;-70
2021/09/22 04:40:10;;;;;;;0.10;0.10;;;;;;;;;;5084588;28;20249;-69
2021/09/22 04:42:36;;;;;;;0.10;0.10;;;;;;;;;;5084877;28;20263;-70
2021/09/22 04:45:04;;;;;;;0.10;0.10;;;;;;;;;;5084927;28;20273;-69
2021/09/22 04:47:31;;;;;;;0.10;0.10;;;;;;;;;;5070436;28;20196;-69
2021/09/22 04:49:58;;;;;;;0.10;0.10;;;;;;;;;;5084822;28;20203;-69
2021/09/22 04:52:24;;;;;;;0.10;0.10;;;;;;;;;;5084414;28;20211;-69
2021/09/22 04:54:50;;;;;;;0.10;0.10;;;;;;;;;;5084304;28;20264;-69
2021/09/22 04:57:16;;;;;;;0.10;0.10;;;;;;;;;;5084267;28;20268;-70
2021/09/22 04:59:43;;;;;;;0.10;0.10;;;;;;;;;;5084351;28;20210;-69
2021/09/22 05:02:09;;;;;;;0.10;0.10;;;;;;;;;;5084439;28;20306;-69
2021/09/22 05:04:36;;;;;;;0.10;0.10;;;;;;;;;;5084228;28;20227;-69
2021/09/22 05:07:03;;;;;;;0.10;0.10;;;;;;;;;;5084426;28;20240;-69
2021/09/22 05:09:29;;;;;;;0.10;0.10;;;;;;;;;;5084187;28;20211;-69
2021/09/22 05:11:55;;;;;;;0.10;0.10;;;;;;;;;;5084256;28;20203;-69
2021/09/22 05:14:21;;;;;;;0.10;0.10;;;;;;;;;;5084194;28;20204;-69
2021/09/22 05:16:48;;;;;;;0.10;0.10;;;;;;;;;;5083354;28;20222;-69
2021/09/22 05:19:14;;;;;;;0.10;0.10;;;;;;;;;;5084221;28;20257;-69
2021/09/22 05:21:41;;;;;;;0.10;0.10;;;;;;;;;;5083992;28;20201;-69
2021/09/22 05:24:08;;;;;;;0.10;0.10;;;;;;;;;;5083744;28;20214;-69
2021/09/22 05:26:34;;;;;;;0.10;0.10;;;;;;;;;;5083967;28;20205;-69
2021/09/22 05:29:00;;;;;;;0.10;0.10;;;;;;;;;;5083859;28;20203;-69
2021/09/22 05:31:26;;;;;;;0.10;0.10;;;;;;;;;;5083561;28;20205;-69
2021/09/22 05:33:53;;;;;;;0.10;0.10;;;;;;;;;;5083738;28;20242;-69
2021/09/22 05:36:19;;;;;;;0.10;0.10;;;;;;;;;;5083758;28;20203;-69
2021/09/22 05:38:46;;;;;;;0.10;0.10;;;;;;;;;;5083807;28;20270;-70
2021/09/22 05:41:13;;;;;;;1.87;1.70;;;;;;;;;;5083512;28;20224;-69
2021/09/22 05:43:39;;;;;;;0.10;0.10;;;;;;;;;;5083589;28;20501;-68
2021/09/22 05:46:05;;;;;;;0.10;0.10;;;;;;;;;;5083551;28;20426;-68
2021/09/22 05:48:31;;;;;;;0.10;0.10;;;;;;;;;;5083594;28;20264;-68
2021/09/22 05:50:58;;;;;;;0.10;0.10;;;;;;;;;;5083349;28;20211;-68
2021/09/22 05:53:25;;;;;;;0.10;0.10;;;;;;;;;;5083201;28;20229;-69
2021/09/22 05:55:52;;;;;;;0.10;0.10;;;;;;;;;;5083380;28;20202;-68
2021/09/22 05:58:19;;;;;;;0.10;0.10;;;;;;;;;;5083113;28;20246;-69
2021/09/22 06:00:46;;;;;;;0.10;0.10;;;;;;;;;;5082837;28;20206;-68
2021/09/22 06:03:12;;;;;;;0.20;0.20;;;;;;;;;;5082917;28;20200;-69
2021/09/22 06:05:39;;;;;;;0.10;0.10;;;;;;;;;;5079585;28;20534;-68
2021/09/22 06:08:06;;;;;;;0.10;0.10;;;;;;;;;;5072681;28;20256;-68
2021/09/22 06:10:32;;;;;;;0.20;0.20;;;;;;;;;;5082853;28;20199;-69
2021/09/22 06:12:59;;;;;;;0.10;0.10;;;;;;;;;;5083146;28;20222;-69
2021/09/22 06:15:26;;;;;;;0.10;0.10;;;;;;;;;;5091654;28;20538;-69
2021/09/22 06:17:52;;;;;;;0.10;0.10;;;;;;;;;;5082086;28;20215;-69
2021/09/22 06:20:18;;;;;;;0.10;0.10;;;;;;;;;;5087213;28;20279;-69
2021/09/22 06:22:45;;;;;;;2.33;2.13;;;;;;;;;;5080995;28;20208;-69
2021/09/22 06:25:13;;;;;;;0.10;0.10;;;;;;;;;;5080470;28;20540;-69
2021/09/22 06:27:39;;;;;;;0.10;0.10;;;;;;;;;;5082422;28;20206;-69
2021/09/22 06:30:07;;;;;;;0.10;0.10;;;;;;;;;;5083867;28;20211;-69
2021/09/22 06:32:35;;;;;;;0.10;0.10;;;;;;;;;;5082545;28;20204;-69
2021/09/22 06:35:01;;;;;;;0.10;0.10;;;;;;;;;;5080707;28;20262;-70
2021/09/22 06:37:27;;;;;;;0.10;0.10;;;;;;;;;;5082625;28;20229;-68
2021/09/22 06:39:54;;;;;;;0.10;0.10;;;;;;;;;;5079369;28;20275;-69
2021/09/22 06:42:20;;;;;;;0.10;0.10;;;;;;;;;;5076931;28;20210;-69
2021/09/22 06:44:46;;;;;;;0.10;0.10;;;;;;;;;;5082522;28;20205;-70
2021/09/22 06:47:14;;;;;;;0.10;0.10;;;;;;;;;;5082689;28;20197;-69
2021/09/22 06:49:40;;;;;;;0.10;0.10;;;;;;;;;;5073190;28;20511;-68
2021/09/22 06:52:06;;;;;;;0.53;0.53;;;;;;;;;;5080876;28;20261;-69
2021/09/22 06:54:33;;;;;;;0.10;0.10;;;;;;;;;;5085360;28;20215;-69
2021/09/22 06:57:00;;;;;;;0.10;0.10;;;;;;;;;;5077796;28;20544;-69
2021/09/22 06:59:26;;;;;;;0.10;0.10;;;;;;;;;;5086107;28;20212;-68
2021/09/22 07:01:52;;;;;;;0.10;0.10;;;;;;;;;;5068610;28;20206;-68
2021/09/22 07:04:19;;;;;;;0.10;0.10;;;;;;;;;;5082480;28;20378;-68
2021/09/22 07:06:46;;;;;;;0.10;0.10;;;;;;;;;;5078282;28;20496;-68
2021/09/22 07:09:12;;;;;;;0.10;0.10;;;;;;;;;;5082202;28;20492;-68
2021/09/22 07:11:38;;;;;;;0.10;0.10;;;;;;;;;;5082291;28;20211;-68
2021/09/22 07:14:04;;;;;;;0.10;0.10;;;;;;;;;;5085961;28;20318;-67
2021/09/22 07:16:31;;;;;;;0.10;0.10;;;;;;;;;;5085960;28;20203;-68
2021/09/22 07:18:57;;;;;;;0.10;0.10;;;;;;;;;;5085520;28;20262;-67
2021/09/22 07:21:25;;;;;;;0.10;0.10;;;;;;;;;;5082581;28;20278;-68
2021/09/22 07:23:52;;;;;;;0.10;0.10;;;;;;;;;;5082251;28;20271;-68
2021/09/22 07:26:18;;;;;;;0.10;0.10;;;;;;;;;;5082411;28;20208;-68
2021/09/22 07:28:44;;;;;;;0.10;0.10;;;;;;;;;;5082232;28;20287;-67
2021/09/22 07:31:10;;;;;;;0.10;0.10;;;;;;;;;;5082423;28;20196;-68
2021/09/22 07:33:37;;;;;;;0.10;0.10;;;;;;;;;;5082427;28;20203;-67
2021/09/22 07:36:04;;;;;;;0.10;0.10;;;;;;;;;;5082291;28;20240;-68
2021/09/22 07:38:32;;;;;;;0.10;0.10;;;;;;;;;;5082317;28;20223;-68
2021/09/22 07:40:58;;;;;;;0.10;0.10;;;;;;;;;;5085181;28;20258;-69
2021/09/22 07:43:25;;;;;;;0.10;0.10;;;;;;;;;;5085812;28;20218;-68
2021/09/22 07:45:51;;;;;;;0.10;0.10;;;;;;;;;;5085476;28;20361;-74
2021/09/22 07:48:17;;;;;;;0.10;0.10;;;;;;;;;;5085802;28;20204;-75
2021/09/22 07:50:43;;;;;;;0.10;0.10;;;;;;;;;;5085771;28;20496;-74
2021/09/22 07:53:10;;;;;;;0.10;0.10;;;;;;;;;;5085331;28;20227;-73
2021/09/22 07:55:37;;;;;;;0.10;0.10;;;;;;;;;;5085874;28;20366;-74
2021/09/22 07:58:04;;;;;;;0.10;0.10;;;;;;;;;;5085680;28;20245;-75
2021/09/22 08:00:30;;;;;;;0.10;0.10;;;;;;;;;;5085334;28;20204;-76
2021/09/22 08:02:58;;;;;;;0.10;0.10;;;;;;;;;;5085615;28;20478;-74
2021/09/22 08:05:25;;;;;;;0.10;0.10;;;;;;;;;;5074850;28;20228;-74
2021/09/22 08:07:51;;;;;;;0.10;0.10;;;;;;;;;;5081895;28;20201;-74
2021/09/22 08:10:17;;;;;;;0.10;0.10;;;;;;;;;;5080418;28;20208;-74
2021/09/22 08:12:49;;;;;;;0.10;0.10;;;;;;;;;;5075686;28;20206;-74
2021/09/22 08:15:15;;;;;;;0.10;0.10;;;;;;;;;;5072971;28;20198;-68
2021/09/22 08:17:42;;;;;;;0.10;0.10;;;;;;;;;;5085220;28;20231;-69
2021/09/22 08:20:09;;;;;;;0.10;0.10;;;;;;;;;;5085799;28;20617;-69
2021/09/22 08:22:35;;;;;;;0.00;0.00;;;;;;;;;;5093802;28;20343;-68
2021/09/22 08:25:02;;;;;;;0.10;0.10;;;;;;;;;;5085250;28;20205;-68
2021/09/22 08:27:29;;;;;;;0.20;0.20;;;;;;;;;;5090190;28;20564;-69
2021/09/22 08:29:56;;;;;;;0.10;0.10;;;;;;;;;;5089171;28;20206;-67
2021/09/22 08:32:23;;;;;;;0.10;0.10;;;;;;;;;;5084915;28;20207;-69
2021/09/22 08:34:49;;;;;;;0.07;0.07;;;;;;;;;;5075797;28;20209;-68
2021/09/22 08:37:15;;;;;;;0.10;0.10;;;;;;;;;;5080106;28;20210;-68
2021/09/22 08:39:41;;;;;;;0.10;0.10;;;;;;;;;;5084826;28;20205;-70
2021/09/22 08:42:07;;;;;;;0.10;0.10;;;;;;;;;;5084432;28;20257;-67
2021/09/22 08:44:34;;;;;;;0.00;0.00;;;;;;;;;;5084759;28;20207;-67
2021/09/22 08:47:01;;;;;;;0.10;0.10;;;;;;;;;;5084195;28;20199;-69
2021/09/22 08:49:28;;;;;;;0.10;0.10;;;;;;;;;;5084018;28;20201;-69
2021/09/22 08:51:54;;;;;;;0.10;0.10;;;;;;;;;;5083686;28;20307;-68
2021/09/22 08:54:20;;;;;;;0.00;0.00;;;;;;;;;;5075913;28;20212;-70
2021/09/22 08:56:46;;;;;;;0.10;0.10;;;;;;;;;;5084283;28;20225;-68
2021/09/22 08:59:14;;;;;;;0.10;0.10;;;;;;;;;;5086444;28;20261;-68
2021/09/22 09:01:41;;;;;;;0.10;0.10;;;;;;;;;;5079344;28;20237;-68
2021/09/22 09:04:16;;;;;;;0.03;0.03;;;;;;;;;;5075324;28;20208;-68
2021/09/22 09:06:42;;;;;;;0.10;0.10;;;;;;;;;;5084228;28;20547;-68
2021/09/22 09:09:08;;;;;;;0.10;0.10;;;;;;;;;;5083656;28;20487;-69
2021/09/22 09:11:35;;;;;;;0.10;0.10;;;;;;;;;;5083784;28;20207;-69
2021/09/22 09:14:04;;;;;;;0.10;0.10;;;;;;;;;;5083788;28;20255;-68
2021/09/22 09:16:35;;;;;;;0.10;0.10;;;;;;;;;;5083295;28;20203;-69
2021/09/22 09:19:02;;;;;;;0.10;0.10;;;;;;;;;;5083270;28;20265;-69
2021/09/22 09:21:29;;;;;;;0.23;0.23;;;;;;;;;;5083692;28;20210;-69
2021/09/22 09:23:57;;;;;;;0.10;0.10;;;;;;;;;;5084003;28;20203;-69
2021/09/22 09:26:24;;;;;;;0.10;0.10;;;;;;;;;;5083869;28;20212;-69
2021/09/22 09:28:51;;;;;;;0.00;0.00;;;;;;;;;;5083536;28;20198;-69
2021/09/22 09:31:17;;;;;;;0.10;0.10;;;;;;;;;;5083183;28;20248;-69
2021/09/22 09:33:45;;;;;;;0.10;0.10;;;;;;;;;;5083602;28;20206;-69
2021/09/22 09:36:15;;;;;;;0.10;0.10;;;;;;;;;;5083548;28;20198;-69
2021/09/22 09:38:46;;;;;;;0.10;0.10;;;;;;;;;;5082898;28;20279;-69
2021/09/22 09:41:22;;;;;;;0.10;0.10;;;;;;;;;;5083838;28;20220;-69
2021/09/22 09:43:48;;;;;;;0.10;0.10;;;;;;;;;;5076414;28;20198;-68
2021/09/22 09:46:18;;;;;;;0.10;0.10;;;;;;;;;;5076302;28;20264;-67
2021/09/22 09:48:44;;;;;;;0.20;0.20;;;;;;;;;;5083509;28;20195;-68
2021/09/22 09:51:11;;;;;;;0.10;0.10;;;;;;;;;;5081874;28;20202;-69
2021/09/22 09:53:37;;;;;;;0.10;0.10;;;;;;;;;;5078571;28;20202;-68
2021/09/22 09:56:05;;;;;;;0.10;0.10;;;;;;;;;;5071247;28;20496;-68
2021/09/22 09:58:40;;;;;;;0.10;0.10;;;;;;;;;;5076900;28;20271;-68
2021/09/22 10:01:06;;;;;;;0.10;0.10;;;;;;;;;;5081398;28;20240;-68
2021/09/22 10:03:32;;;;;;;0.10;0.10;;;;;;;;;;5071085;28;20212;-69
2021/09/22 10:05:59;;;;;;;0.10;0.10;;;;;;;;;;5082922;28;20284;-69
2021/09/22 10:08:26;;;;;;;0.00;0.00;;;;;;;;;;5083455;28;20256;-68
2021/09/22 10:10:54;;;;;;;0.10;0.10;;;;;;;;;;5068993;28;20211;-69
2021/09/22 10:13:22;;;;;;;0.10;0.10;;;;;;;;;;5081488;28;20426;-68
2021/09/22 10:15:49;;;;;;;0.10;0.10;;;;;;;;;;5083017;28;20513;-68
2021/09/22 10:18:17;;;;;;;0.20;0.20;;;;;;;;;;5082062;28;20244;-66
2021/09/22 10:20:44;;;;;;;0.00;0.00;;;;;;;;;;5080011;28;20249;-67
2021/09/22 10:23:12;;;;;;;0.10;0.10;;;;;;;;;;5069418;28;20210;-68
2021/09/22 10:25:39;;;;;;;0.10;0.10;;;;;;;;;;5073143;28;20204;-67
2021/09/22 10:28:07;;;;;;;0.10;0.10;;;;;;;;;;5073219;28;20543;-68
2021/09/22 10:30:37;;;;;;;0.10;0.10;;;;;;;;;;5070507;28;20226;-68
2021/09/22 10:33:04;;;;;;;0.10;0.10;;;;;;;;;;5077238;28;20244;-69
2021/09/22 10:35:35;;;;;;;0.10;0.10;;;;;;;;;;5079425;28;20206;-68
2021/09/22 10:38:02;;;;;;;0.10;0.10;;;;;;;;;;5082915;28;20200;-68
2021/09/22 10:40:47;;;;;;;0.10;0.10;;;;;;;;;;5080031;28;20203;-68
2021/09/22 10:43:19;;;;;;;0.10;0.10;;;;;;;;;;5072964;28;20199;-68
2021/09/22 10:45:59;;;;;;;0.10;0.10;;;;;;;;;;5079587;28;20493;-69
2021/09/22 10:48:25;;;;;;;0.10;0.10;;;;;;;;;;5082554;28;20200;-69
2021/09/22 10:50:52;;;;;;;0.10;0.10;;;;;;;;;;5082710;28;20518;-69
2021/09/22 10:53:37;;;;;;;0.10;0.10;;;;;;;;;;5082726;28;20207;-69
2021/09/22 10:56:04;;;;;;;0.10;0.10;;;;;;;;;;5082734;28;20203;-69
2021/09/22 10:58:32;;;;;;;0.00;0.00;;;;;;;;;;5082268;28;20235;-68
2021/09/22 11:01:00;;;;;;;0.10;0.10;;;;;;;;;;5082288;28;20253;-68
2021/09/22 11:03:41;;;;;;;0.10;0.10;;;;;;;;;;5074239;28;20427;-69
2021/09/22 11:06:28;;;;;;;0.10;0.10;;;;;;;;;;5080724;28;20468;-69
2021/09/22 11:09:03;;;;;;;0.03;0.03;;;;;;;;;;5082109;28;20212;-69
2021/09/22 11:11:54;;;;;;;0.10;0.10;;;;;;;;;;5081358;28;20506;-69
2021/09/22 11:14:29;;;;;;;0.10;0.10;;;;;;;;;;5070677;28;20226;-68
2021/09/22 11:16:57;;;;;;;0.10;0.10;;;;;;;;;;5088496;28;20281;-69
2021/09/22 11:19:23;;;;;;;0.07;0.07;;;;;;;;;;5086171;28;20246;-69
2021/09/22 11:21:49;;;;;;;0.10;0.10;;;;;;;;;;5086157;28;20515;-68
2021/09/22 11:24:16;;;;;;;0.10;0.10;;;;;;;;;;5086141;28;20240;-68
2021/09/22 11:26:48;;;;;;;0.10;0.10;;;;;;;;;;5086182;28;20206;-68
2021/09/22 11:29:27;;;;;;;0.10;0.10;;;;;;;;;;5085931;28;20209;-68
2021/09/22 11:31:53;;;;;;;0.10;0.10;;;;;;;;;;5086119;28;20207;-69
2021/09/22 11:34:25;;;;;;;0.10;0.10;;;;;;;;;;5086264;28;20389;-70
2021/09/22 11:37:03;;;;;;;0.10;0.10;;;;;;;;;;5086197;28;20268;-69
2021/09/22 11:39:29;;;;;;;0.10;0.10;;;;;;;;;;5086011;28;20212;-70
2021/09/22 11:41:55;;;;;;;0.10;0.10;;;;;;;;;;5086080;28;20248;-69
2021/09/22 11:44:25;;;;;;;0.10;0.10;;;;;;;;;;5085938;28;20257;-70
2021/09/22 11:46:53;;;;;;;0.10;0.10;;;;;;;;;;5085989;28;20211;-70
2021/09/22 11:49:19;;;;;;;0.03;0.03;;;;;;;;;;5085839;28;20201;-69
2021/09/22 11:52:00;;;;;;;0.10;0.10;;;;;;;;;;5085762;28;20210;-70
2021/09/22 11:54:26;;;;;;;0.10;0.10;;;;;;;;;;5085512;28;20427;-70
2021/09/22 11:57:01;;;;;;;0.00;0.00;;;;;;;;;;5085433;28;20228;-69
2021/09/22 11:59:30;;;;;;;0.10;0.10;;;;;;;;;;5085541;28;20512;-70
2021/09/22 12:01:56;;;;;;;0.10;0.10;;;;;;;;;;5085676;28;20518;-70
2021/09/22 12:04:23;;;;;;;0.10;0.10;;;;;;;;;;5085214;28;20206;-68
2021/09/22 12:06:51;;;;;;;0.00;0.00;;;;;;;;;;5085353;28;20210;-68
2021/09/22 12:09:17;;;;;;;0.00;0.00;;;;;;;;;;5085417;28;20261;-68
2021/09/22 12:11:43;;;;;;;0.00;0.00;;;;;;;;;;5085144;28;20203;-69
2021/09/22 12:14:10;;;;;;;0.00;0.00;;;;;;;;;;5085258;28;20201;-69
2021/09/22 12:16:36;;;;;;;0.10;0.10;;;;;;;;;;5084954;28;20379;-69
2021/09/22 12:19:02;;;;;;;0.10;0.10;;;;;;;;;;5085368;28;20453;-69
2021/09/22 12:21:29;;;;;;;0.00;0.00;;;;;;;;;;5085049;28;20206;-69
2021/09/22 12:24:01;;;;;;;0.10;0.10;;;;;;;;;;5085263;28;20207;-70
2021/09/22 12:26:27;;;;;;;0.10;0.10;;;;;;;;;;5084919;28;20206;-69
2021/09/22 12:29:04;;;;;;;0.00;0.00;;;;;;;;;;5085096;28;20200;-69
2021/09/22 12:31:30;;;;;;;0.10;0.10;;;;;;;;;;5085204;28;20201;-69
2021/09/22 12:33:58;;;;;;;0.10;0.10;;;;;;;;;;5084862;28;20494;-69
2021/09/22 12:36:25;;;;;;;0.08;0.08;;;;;;;;;;5084963;28;20520;-69
2021/09/22 12:38:52;;;;;;;0.10;0.10;;;;;;;;;;5084888;28;20424;-69
2021/09/22 12:41:21;;;;;;;0.10;0.10;;;;;;;;;;5075998;28;20408;-69
2021/09/22 12:43:49;;;;;;;0.10;0.10;;;;;;;;;;5080544;28;20204;-68
2021/09/22 12:46:16;;;;;;;0.00;0.00;;;;;;;;;;5074809;28;20270;-68
2021/09/22 12:48:43;;;;;;;0.10;0.10;;;;;;;;;;5074115;28;20205;-69
2021/09/22 12:51:13;;;;;;;0.10;0.10;;;;;;;;;;5083703;28;20249;-68
2021/09/22 12:53:40;;;;;;;0.10;0.10;;;;;;;;;;5080466;28;20281;-69
2021/09/22 12:56:10;;;;;;;0.00;0.00;;;;;;;;;;5079565;28;20316;-68
2021/09/22 12:58:37;;;;;;;0.00;0.00;;;;;;;;;;5084511;28;20256;-69
2021/09/22 13:01:04;;;;;;;0.00;0.00;;;;;;;;;;5092402;28;20211;-68
2021/09/22 13:03:31;;;;;;;0.10;0.10;;;;;;;;;;5084223;28;20207;-68
2021/09/22 13:06:05;;;;;;;0.10;0.10;;;;;;;;;;5084047;28;20227;-69
2021/09/22 13:08:32;;;;;;;0.00;0.00;;;;;;;;;;5075693;28;20558;-68
2021/09/22 13:10:59;;;;;;;0.10;0.10;;;;;;;;;;5082613;28;20220;-68
2021/09/22 13:13:26;;;;;;;0.00;0.00;;;;;;;;;;5083942;28;20204;-67
2021/09/22 13:15:54;;;;;;;0.03;0.03;;;;;;;;;;5082527;28;20207;-69
2021/09/22 13:18:21;;;;;;;0.00;0.00;;;;;;;;;;5083788;28;20212;-69
2021/09/22 13:20:48;;;;;;;0.00;0.00;;;;;;;;;;5083525;28;20224;-68
2021/09/22 13:23:20;;;;;;;0.00;0.00;;;;;;;;;;5083740;28;20258;-67
2021/09/22 13:25:46;;;;;;;0.10;0.10;;;;;;;;;;5083059;28;20203;-68
2021/09/22 13:28:12;;;;;;;0.10;0.10;;;;;;;;;;5076565;28;20206;-68
2021/09/22 13:30:38;;;;;;;0.10;0.10;;;;;;;;;;5083327;28;20220;-67
2021/09/22 13:33:06;;;;;;;0.10;0.10;;;;;;;;;;5083532;28;20288;-67
2021/09/22 13:35:32;;;;;;;0.00;0.00;;;;;;;;;;5083330;28;20256;-69
2021/09/22 13:37:59;;;;;;;0.05;0.05;;;;;;;;;;5083082;28;20221;-68
2021/09/22 13:40:25;;;;;;;0.10;0.10;;;;;;;;;;5083209;28;20219;-68
2021/09/22 13:42:52;;;;;;;0.00;0.00;;;;;;;;;;5083391;28;20210;-68
2021/09/22 13:45:18;;;;;;;0.10;0.10;;;;;;;;;;5083161;28;20231;-68
2021/09/22 13:47:44;;;;;;;0.10;0.10;;;;;;;;;;5083274;28;20250;-68
2021/09/22 13:50:12;;;;;;;0.00;0.00;;;;;;;;;;5082856;28;20197;-68
2021/09/22 13:52:38;;;;;;;0.10;0.10;;;;;;;;;;5082207;28;20208;-67
2021/09/22 13:55:05;;;;;;;0.25;0.25;;;;;;;;;;5081835;28;20273;-68
2021/09/22 13:57:31;;;;;;;0.10;0.10;;;;;;;;;;5082868;28;20203;-68
2021/09/22 13:59:57;;;;;;;0.00;0.00;;;;;;;;;;5083015;28;20219;-69
2021/09/22 14:02:23;;;;;;;0.10;0.10;;;;;;;;;;5083349;28;20229;-69
2021/09/22 14:04:49;;;;;;;0.00;0.00;;;;;;;;;;5082666;28;20230;-68
2021/09/22 14:07:20;;;;;;;0.03;0.03;;;;;;;;;;5072655;28;20208;-68
2021/09/22 14:09:46;;;;;;;0.10;0.10;;;;;;;;;;5069320;28;20191;-69
2021/09/22 14:12:13;;;;;;;0.10;0.10;;;;;;;;;;5079524;28;20203;-68
2021/09/22 14:14:39;;;;;;;0.10;0.10;;;;;;;;;;5083034;28;20217;-69
2021/09/22 14:17:05;;;;;;;0.10;0.10;;;;;;;;;;5082568;28;20201;-68
2021/09/22 14:19:31;;;;;;;0.10;0.10;;;;;;;;;;5080490;28;20245;-69
2021/09/22 14:21:57;;;;;;;0.00;0.00;;;;;;;;;;5083009;28;20240;-68
2021/09/22 14:24:25;;;;;;;0.10;0.10;;;;;;;;;;5083117;28;20490;-69
2021/09/22 14:26:51;;;;;;;0.10;0.10;;;;;;;;;;5071015;28;20204;-69
2021/09/22 14:29:17;;;;;;;0.08;0.08;;;;;;;;;;5080190;28;20248;-69
2021/09/22 14:31:44;;;;;;;0.10;0.10;;;;;;;;;;5083066;28;20203;-69
2021/09/22 14:34:10;;;;;;;0.10;0.10;;;;;;;;;;5082608;28;20483;-68
2021/09/22 14:36:36;;;;;;;0.10;0.10;;;;;;;;;;5082901;28;20208;-68
2021/09/22 14:39:02;;;;;;;0.10;0.10;;;;;;;;;;5082840;28;20210;-69
2021/09/22 14:41:30;;;;;;;0.00;0.00;;;;;;;;;;5080711;28;20210;-68
2021/09/22 14:43:56;;;;;;;0.10;0.10;;;;;;;;;;5076723;28;20243;-68